Time;durP1;ratioP1;P1;durP2;ratioP2;P2;SDS_P1;SDS_P2;PMS_P1;PMS_P2;Temp;Humidity;BMP_temperature;BMP_pressure;BME280_temperature;BME280_humidity;BME280_pressure;Samples;Min_cycle;Max_cycle;Signal;HPM_P1;HPM_P2
2023/08/08 00:01:57;;;;;;;1.20;1.10;;;;;;;;;;6072754;29;20477;-77
2023/08/08 00:05:01;;;;;;;1.33;1.02;;;;;;;;;;6072120;29;20303;-78
2023/08/08 00:08:06;;;;;;;3.58;1.17;;;;;;;;;;6072635;29;20301;-78
2023/08/08 00:11:10;;;;;;;1.42;1.20;;;;;;;;;;6065025;29;20306;-78
2023/08/08 00:14:15;;;;;;;3.00;1.58;;;;;;;;;;6048848;29;20292;-78
2023/08/08 00:17:19;;;;;;;2.17;1.30;;;;;;;;;;6048085;29;20301;-77
2023/08/08 00:20:23;;;;;;;2.35;1.45;;;;;;;;;;6048718;29;20297;-77
2023/08/08 00:23:27;;;;;;;1.63;1.02;;;;;;;;;;6049247;29;20329;-78
2023/08/08 00:26:30;;;;;;;1.98;0.90;;;;;;;;;;6048849;29;20293;-78
2023/08/08 00:29:36;;;;;;;2.63;1.05;;;;;;;;;;6048693;29;20428;-78
2023/08/08 00:32:39;;;;;;;1.60;1.05;;;;;;;;;;6050629;29;20301;-78
2023/08/08 00:35:44;;;;;;;1.08;1.00;;;;;;;;;;6072040;29;20484;-78
2023/08/08 00:38:48;;;;;;;2.55;1.27;;;;;;;;;;6073306;29;20305;-78
2023/08/08 00:41:52;;;;;;;2.38;1.10;;;;;;;;;;6070146;29;20372;-78
2023/08/08 00:45:03;;;;;;;2.20;1.17;;;;;;;;;;6071633;29;20608;-78
2023/08/08 00:48:07;;;;;;;3.20;1.10;;;;;;;;;;6074760;29;20297;-78
2023/08/08 00:51:11;;;;;;;2.08;1.25;;;;;;;;;;6069128;29;20304;-78
2023/08/08 00:54:15;;;;;;;3.95;1.50;;;;;;;;;;6071093;29;20305;-78
2023/08/08 00:57:19;;;;;;;1.33;1.23;;;;;;;;;;6071754;29;20392;-78
2023/08/08 01:00:24;;;;;;;1.20;1.10;;;;;;;;;;6071441;29;20312;-78
2023/08/08 01:03:29;;;;;;;2.55;1.00;;;;;;;;;;6061397;29;20310;-78
2023/08/08 01:06:38;;;;;;;1.40;1.10;;;;;;;;;;6062417;29;20305;-77
2023/08/08 01:09:46;;;;;;;1.30;1.20;;;;;;;;;;6048073;29;20330;-77
2023/08/08 01:12:54;;;;;;;2.15;1.27;;;;;;;;;;6030167;29;20302;-77
2023/08/08 01:15:59;;;;;;;1.13;1.02;;;;;;;;;;6024542;29;20560;-77
2023/08/08 01:19:05;;;;;;;2.92;1.00;;;;;;;;;;6024868;29;20318;-77
2023/08/08 01:22:15;;;;;;;2.25;1.38;;;;;;;;;;6024931;29;20302;-77
2023/08/08 01:25:21;;;;;;;1.85;1.20;;;;;;;;;;6024293;29;20326;-77
2023/08/08 01:28:25;;;;;;;2.33;1.20;;;;;;;;;;6024896;29;20302;-78
2023/08/08 01:31:29;;;;;;;0.90;0.90;;;;;;;;;;6038351;29;20310;-77
2023/08/08 01:34:33;;;;;;;1.65;0.98;;;;;;;;;;6051716;29;20497;-77
2023/08/08 01:37:42;;;;;;;2.42;1.38;;;;;;;;;;6061874;29;20298;-78
2023/08/08 01:40:48;;;;;;;1.95;0.95;;;;;;;;;;6060869;29;20439;-77
2023/08/08 01:43:52;;;;;;;2.53;1.10;;;;;;;;;;6046890;29;20302;-78
2023/08/08 01:46:56;;;;;;;2.33;1.10;;;;;;;;;;6047219;29;20309;-78
2023/08/08 01:50:00;;;;;;;2.10;1.35;;;;;;;;;;6046611;29;20606;-78
2023/08/08 01:53:04;;;;;;;4.07;1.50;;;;;;;;;;6061532;29;20301;-78
2023/08/08 01:56:09;;;;;;;2.15;1.10;;;;;;;;;;6060899;29;20313;-78
2023/08/08 01:59:13;;;;;;;5.40;1.40;;;;;;;;;;6060497;29;20324;-78
2023/08/08 02:02:19;;;;;;;3.95;2.45;;;;;;;;;;6059842;29;20293;-78
2023/08/08 02:05:23;;;;;;;3.38;1.27;;;;;;;;;;6046398;29;20468;-78
2023/08/08 02:08:26;;;;;;;4.63;1.50;;;;;;;;;;6047085;29;20297;-77
2023/08/08 02:11:32;;;;;;;6.43;1.33;;;;;;;;;;6038359;29;20294;-77
2023/08/08 02:14:36;;;;;;;1.65;1.33;;;;;;;;;;6036856;29;20444;-77
2023/08/08 02:17:39;;;;;;;2.20;1.30;;;;;;;;;;6037714;29;20302;-77
2023/08/08 02:20:43;;;;;;;2.10;1.10;;;;;;;;;;6037795;29;20302;-79
2023/08/08 02:23:47;;;;;;;1.02;1.00;;;;;;;;;;6037891;29;20298;-76
2023/08/08 02:26:52;;;;;;;1.58;1.20;;;;;;;;;;6022784;29;20311;-77
2023/08/08 02:29:57;;;;;;;3.72;1.38;;;;;;;;;;6023332;29;20354;-77
2023/08/08 02:33:01;;;;;;;1.92;1.10;;;;;;;;;;6025400;29;20314;-77
2023/08/08 02:36:05;;;;;;;5.90;1.20;;;;;;;;;;6060326;29;20306;-77
2023/08/08 02:39:09;;;;;;;2.88;1.40;;;;;;;;;;6060080;29;20294;-78
2023/08/08 02:42:14;;;;;;;4.90;1.52;;;;;;;;;;6060625;29;20583;-78
2023/08/08 02:45:19;;;;;;;2.20;1.13;;;;;;;;;;6059788;29;20301;-77
2023/08/08 02:48:22;;;;;;;2.80;1.15;;;;;;;;;;6060511;29;20313;-78
2023/08/08 02:51:26;;;;;;;1.63;1.13;;;;;;;;;;6044422;29;20297;-78
2023/08/08 02:54:30;;;;;;;2.95;1.15;;;;;;;;;;6058509;29;20301;-77
2023/08/08 02:57:35;;;;;;;1.10;1.10;;;;;;;;;;6060321;29;20273;-77
2023/08/08 03:00:40;;;;;;;3.95;1.00;;;;;;;;;;6056581;29;20309;-78
2023/08/08 03:03:48;;;;;;;3.28;1.23;;;;;;;;;;6038735;29;20321;-78
2023/08/08 03:06:54;;;;;;;1.48;1.15;;;;;;;;;;6049032;29;20294;-77
2023/08/08 03:09:58;;;;;;;1.13;1.10;;;;;;;;;;6021229;29;20306;-77
2023/08/08 03:13:03;;;;;;;1.52;1.10;;;;;;;;;;6021189;29;20302;-77
2023/08/08 03:16:08;;;;;;;1.58;1.23;;;;;;;;;;6026862;29;20607;-78
2023/08/08 03:19:12;;;;;;;1.42;1.20;;;;;;;;;;6034640;29;20427;-79
2023/08/08 03:22:16;;;;;;;1.80;1.30;;;;;;;;;;6068814;29;20551;-78
2023/08/08 03:25:20;;;;;;;0.90;0.90;;;;;;;;;;6066843;29;20296;-79
2023/08/08 03:28:26;;;;;;;1.23;1.13;;;;;;;;;;6067299;29;20288;-78
2023/08/08 03:31:32;;;;;;;1.23;1.10;;;;;;;;;;6067047;29;20292;-78
2023/08/08 03:34:39;;;;;;;7.22;1.95;;;;;;;;;;6053016;29;20310;-78
2023/08/08 03:37:43;;;;;;;1.92;1.45;;;;;;;;;;6062190;29;20505;-78
2023/08/08 03:40:48;;;;;;;1.92;1.25;;;;;;;;;;6067441;29;20293;-78
2023/08/08 03:43:53;;;;;;;3.55;1.48;;;;;;;;;;6067971;29;20297;-78
2023/08/08 03:46:57;;;;;;;2.25;1.40;;;;;;;;;;6068670;29;20300;-78
2023/08/08 03:50:20;;;;;;;4.35;1.75;;;;;;;;;;6067051;29;20569;-77
2023/08/08 03:53:24;;;;;;;2.50;1.50;;;;;;;;;;6066622;29;20289;-77
2023/08/08 03:56:28;;;;;;;1.40;1.30;;;;;;;;;;6052384;29;20590;-79
2023/08/08 03:59:33;;;;;;;2.58;1.45;;;;;;;;;;6066717;29;20305;-79
2023/08/08 04:02:37;;;;;;;6.53;1.33;;;;;;;;;;6066591;29;20341;-79
2023/08/08 04:05:41;;;;;;;3.35;1.27;;;;;;;;;;6068859;29;20300;-79
2023/08/08 04:08:45;;;;;;;2.28;1.67;;;;;;;;;;6068086;29;20297;-78
2023/08/08 04:11:49;;;;;;;1.52;1.30;;;;;;;;;;6048879;29;20302;-78
2023/08/08 04:14:55;;;;;;;1.45;1.23;;;;;;;;;;6043899;29;20377;-79
2023/08/08 04:17:59;;;;;;;1.20;1.17;;;;;;;;;;6044266;29;20571;-78
2023/08/08 04:21:03;;;;;;;2.15;1.20;;;;;;;;;;6045243;29;20305;-78
2023/08/08 04:24:07;;;;;;;1.10;1.10;;;;;;;;;;6044578;29;20306;-78
2023/08/08 04:27:11;;;;;;;1.50;1.25;;;;;;;;;;6049165;29;20301;-78
2023/08/08 04:30:17;;;;;;;1.48;1.38;;;;;;;;;;6048933;29;20301;-78
2023/08/08 04:33:20;;;;;;;1.00;1.00;;;;;;;;;;6052958;29;20284;-78
2023/08/08 04:36:24;;;;;;;1.02;1.02;;;;;;;;;;6072399;29;20304;-78
2023/08/08 04:39:28;;;;;;;1.27;1.20;;;;;;;;;;6071086;29;20314;-78
2023/08/08 04:42:32;;;;;;;1.10;1.10;;;;;;;;;;6071670;29;20246;-78
2023/08/08 04:45:38;;;;;;;0.80;0.80;;;;;;;;;;6071997;29;20257;-78
2023/08/08 04:48:41;;;;;;;1.05;0.73;;;;;;;;;;6071493;29;20328;-77
2023/08/08 04:51:45;;;;;;;0.80;0.80;;;;;;;;;;6071983;29;20253;-79
2023/08/08 04:54:49;;;;;;;1.08;0.70;;;;;;;;;;6071454;29;20470;-79
2023/08/08 04:57:53;;;;;;;1.13;0.80;;;;;;;;;;6070893;29;20293;-79
2023/08/08 05:00:58;;;;;;;0.70;0.70;;;;;;;;;;6071158;29;20309;-79
2023/08/08 05:04:02;;;;;;;1.00;1.00;;;;;;;;;;6071062;29;20309;-78
2023/08/08 05:07:07;;;;;;;1.75;1.33;;;;;;;;;;6071862;29;20376;-78
2023/08/08 05:10:11;;;;;;;0.70;0.70;;;;;;;;;;6065204;29;20306;-78
2023/08/08 05:13:15;;;;;;;1.13;0.80;;;;;;;;;;6048120;29;20309;-80
2023/08/08 05:16:20;;;;;;;0.80;0.80;;;;;;;;;;6048398;29;20301;-80
2023/08/08 05:19:25;;;;;;;0.70;0.70;;;;;;;;;;6047817;29;20286;-80
2023/08/08 05:22:28;;;;;;;0.73;0.73;;;;;;;;;;6048266;29;20466;-79
2023/08/08 05:25:32;;;;;;;0.98;0.90;;;;;;;;;;6047945;29;20399;-77
2023/08/08 05:28:36;;;;;;;0.70;0.70;;;;;;;;;;6048081;29;20298;-78
2023/08/08 05:31:41;;;;;;;1.08;1.08;;;;;;;;;;6048368;29;20322;-78
2023/08/08 05:34:45;;;;;;;0.65;0.65;;;;;;;;;;6047606;29;20306;-78
2023/08/08 05:37:49;;;;;;;0.65;0.65;;;;;;;;;;6047092;29;20315;-78
2023/08/08 05:40:53;;;;;;;10.20;1.02;;;;;;;;;;6048125;29;20297;-77
2023/08/08 05:43:57;;;;;;;0.98;0.98;;;;;;;;;;6050191;29;20302;-78
2023/08/08 05:47:02;;;;;;;1.85;0.80;;;;;;;;;;6047953;29;20585;-78
2023/08/08 05:50:07;;;;;;;0.70;0.70;;;;;;;;;;6047490;29;20324;-77
2023/08/08 05:53:11;;;;;;;0.90;0.90;;;;;;;;;;6047083;29;20289;-77
2023/08/08 05:56:15;;;;;;;7.38;2.17;;;;;;;;;;6047692;29;20309;-77
2023/08/08 05:59:19;;;;;;;14.63;3.97;;;;;;;;;;6046960;29;20297;-77
2023/08/08 06:02:24;;;;;;;8.27;1.95;;;;;;;;;;6047144;29;20293;-78
2023/08/08 06:05:29;;;;;;;1.95;1.30;;;;;;;;;;6001235;29;20307;-78
2023/08/08 06:08:33;;;;;;;1.58;0.88;;;;;;;;;;6001186;29;20312;-78
2023/08/08 06:11:37;;;;;;;2.35;1.25;;;;;;;;;;6018047;29;20310;-77
2023/08/08 06:14:41;;;;;;;9.68;2.20;;;;;;;;;;6024025;29;20322;-77
2023/08/08 06:17:46;;;;;;;12.25;2.20;;;;;;;;;;6023749;29;20302;-77
2023/08/08 06:20:50;;;;;;;5.28;1.55;;;;;;;;;;6024274;29;20319;-78
2023/08/08 06:23:54;;;;;;;8.95;1.20;;;;;;;;;;6023631;29;20310;-78
2023/08/08 06:26:58;;;;;;;3.95;1.10;;;;;;;;;;6023808;29;20303;-78
2023/08/08 06:30:02;;;;;;;3.70;1.20;;;;;;;;;;6023631;29;20346;-79
2023/08/08 06:33:08;;;;;;;0.77;0.77;;;;;;;;;;6021154;29;20597;-79
2023/08/08 06:36:12;;;;;;;2.97;0.85;;;;;;;;;;6001210;29;20302;-78
2023/08/08 06:39:16;;;;;;;0.75;0.75;;;;;;;;;;6000603;29;20303;-79
2023/08/08 06:42:20;;;;;;;1.00;1.00;;;;;;;;;;6001318;29;20299;-79
2023/08/08 06:45:31;;;;;;;1.58;0.90;;;;;;;;;;6013417;29;20494;-79
2023/08/08 06:48:36;;;;;;;0.77;0.77;;;;;;;;;;5999698;29;20303;-79
2023/08/08 06:51:40;;;;;;;0.85;0.85;;;;;;;;;;6000984;29;20247;-79
2023/08/08 06:54:43;;;;;;;0.77;0.77;;;;;;;;;;6000659;29;20312;-78
2023/08/08 06:57:47;;;;;;;0.77;0.70;;;;;;;;;;6000718;29;20454;-80
2023/08/08 07:00:51;;;;;;;0.75;0.73;;;;;;;;;;6000935;29;20587;-79
2023/08/08 07:03:57;;;;;;;0.70;0.60;;;;;;;;;;6023036;29;20297;-79
2023/08/08 07:07:01;;;;;;;0.70;0.70;;;;;;;;;;6045521;29;20305;-79
2023/08/08 07:10:06;;;;;;;0.70;0.70;;;;;;;;;;6049262;29;20301;-79
2023/08/08 07:13:10;;;;;;;0.98;0.98;;;;;;;;;;6068328;29;20301;-79
2023/08/08 07:16:14;;;;;;;2.08;0.90;;;;;;;;;;6069321;29;20297;-80
2023/08/08 07:19:19;;;;;;;0.75;0.68;;;;;;;;;;6068423;29;20444;-79
2023/08/08 07:22:23;;;;;;;0.77;0.77;;;;;;;;;;6069200;29;20461;-79
2023/08/08 07:25:27;;;;;;;0.90;0.90;;;;;;;;;;6068477;29;20825;-79
2023/08/08 07:28:31;;;;;;;1.58;1.00;;;;;;;;;;6068115;29;20396;-79
2023/08/08 07:31:35;;;;;;;3.22;0.90;;;;;;;;;;6068692;29;20301;-79
2023/08/08 07:34:40;;;;;;;0.95;0.90;;;;;;;;;;6054252;29;20636;-78
2023/08/08 07:37:44;;;;;;;1.15;1.15;;;;;;;;;;6045146;29;20606;-78
2023/08/08 07:40:48;;;;;;;1.00;1.00;;;;;;;;;;6045740;29;20326;-79
2023/08/08 07:43:52;;;;;;;0.98;0.98;;;;;;;;;;6045160;29;20301;-79
2023/08/08 07:46:56;;;;;;;1.05;1.05;;;;;;;;;;6047368;29;20305;-80
2023/08/08 07:50:02;;;;;;;1.30;1.30;;;;;;;;;;6045050;29;20305;-79
2023/08/08 07:53:06;;;;;;;1.23;1.23;;;;;;;;;;6045210;29;20302;-80
2023/08/08 07:56:09;;;;;;;1.20;1.20;;;;;;;;;;6044454;29;20326;-80
2023/08/08 07:59:13;;;;;;;1.30;1.20;;;;;;;;;;6043643;29;20384;-79
2023/08/08 08:02:17;;;;;;;1.58;1.48;;;;;;;;;;6051282;29;20309;-80
2023/08/08 08:05:22;;;;;;;1.40;1.40;;;;;;;;;;6051784;29;20302;-80
2023/08/08 08:08:26;;;;;;;1.30;1.30;;;;;;;;;;6049469;29;20301;-79
2023/08/08 08:11:31;;;;;;;1.45;1.30;;;;;;;;;;6070132;29;20407;-79
2023/08/08 08:14:34;;;;;;;1.58;1.48;;;;;;;;;;6074621;29;20301;-80
2023/08/08 08:17:38;;;;;;;1.20;1.20;;;;;;;;;;6072722;29;20363;-80
2023/08/08 08:20:44;;;;;;;1.48;1.38;;;;;;;;;;6073285;29;20293;-79
2023/08/08 08:23:48;;;;;;;1.67;1.13;;;;;;;;;;6072821;29;20308;-79
2023/08/08 08:26:52;;;;;;;1.40;1.40;;;;;;;;;;6071101;29;20479;-79
2023/08/08 08:29:56;;;;;;;1.70;1.40;;;;;;;;;;6072031;29;20302;-79
2023/08/08 08:33:00;;;;;;;1.20;1.20;;;;;;;;;;6070608;29;20300;-79
2023/08/08 08:36:06;;;;;;;1.70;1.60;;;;;;;;;;6049445;29;20333;-79
2023/08/08 08:39:10;;;;;;;3.70;1.70;;;;;;;;;;6048738;29;20310;-79
2023/08/08 08:42:15;;;;;;;1.30;1.20;;;;;;;;;;6048941;29;20301;-79
2023/08/08 08:45:21;;;;;;;1.85;1.23;;;;;;;;;;6048664;29;20309;-79
2023/08/08 08:48:26;;;;;;;1.10;1.10;;;;;;;;;;6048584;29;20305;-78
2023/08/08 08:51:31;;;;;;;0.98;0.98;;;;;;;;;;6048126;29;20278;-79
2023/08/08 08:54:35;;;;;;;1.13;1.02;;;;;;;;;;6048516;29;20306;-79
2023/08/08 08:57:40;;;;;;;1.02;1.02;;;;;;;;;;6048075;29;20246;-79
2023/08/08 09:00:45;;;;;;;1.10;1.10;;;;;;;;;;6049092;29;20247;-78
2023/08/08 09:03:49;;;;;;;0.80;0.80;;;;;;;;;;6048313;29;20302;-78
2023/08/08 09:06:55;;;;;;;1.02;0.80;;;;;;;;;;6049950;29;20293;-79
2023/08/08 09:09:59;;;;;;;0.77;0.77;;;;;;;;;;6056867;29;20298;-80
2023/08/08 09:13:03;;;;;;;0.98;0.80;;;;;;;;;;6076283;29;20301;-80
2023/08/08 09:16:08;;;;;;;0.60;0.60;;;;;;;;;;6076599;29;20301;-80
2023/08/08 09:19:12;;;;;;;0.70;0.70;;;;;;;;;;6075579;29;20373;-78
2023/08/08 09:22:17;;;;;;;0.70;0.70;;;;;;;;;;6075928;29;20293;-78
2023/08/08 09:25:21;;;;;;;0.60;0.60;;;;;;;;;;6072542;29;20293;-77
2023/08/08 09:28:26;;;;;;;1.85;1.00;;;;;;;;;;6075439;29;20289;-78
2023/08/08 09:31:30;;;;;;;1.00;1.00;;;;;;;;;;6075399;29;20321;-79
2023/08/08 09:34:34;;;;;;;1.83;1.00;;;;;;;;;;6061672;29;20469;-79
2023/08/08 09:37:40;;;;;;;1.65;0.90;;;;;;;;;;6050415;29;20317;-79
2023/08/08 09:40:44;;;;;;;1.05;1.05;;;;;;;;;;6052886;29;20301;-79
2023/08/08 09:43:48;;;;;;;1.42;1.38;;;;;;;;;;6052593;29;20301;-79
2023/08/08 09:46:53;;;;;;;1.60;1.50;;;;;;;;;;6053181;29;20294;-79
2023/08/08 09:49:58;;;;;;;1.52;1.50;;;;;;;;;;6052281;29;20489;-79
2023/08/08 09:53:04;;;;;;;2.88;1.70;;;;;;;;;;6051285;29;20475;-79
2023/08/08 09:56:09;;;;;;;2.28;2.10;;;;;;;;;;6052253;29;20309;-79
2023/08/08 09:59:15;;;;;;;2.20;2.15;;;;;;;;;;6051823;29;20313;-81
2023/08/08 10:02:19;;;;;;;1.63;1.63;;;;;;;;;;6052406;29;20606;-80
2023/08/08 10:05:23;;;;;;;1.60;1.60;;;;;;;;;;6050950;29;20305;-80
2023/08/08 10:08:29;;;;;;;1.48;1.48;;;;;;;;;;6051901;29;20297;-81
2023/08/08 10:11:34;;;;;;;1.77;1.25;;;;;;;;;;6052568;29;20581;-79
2023/08/08 10:14:39;;;;;;;1.20;1.20;;;;;;;;;;6050982;29;20302;-79
2023/08/08 10:17:44;;;;;;;1.00;1.00;;;;;;;;;;6050497;29;20290;-79
2023/08/08 10:20:49;;;;;;;1.23;1.17;;;;;;;;;;6051849;29;20610;-79
2023/08/08 10:24:04;;;;;;;1.02;1.00;;;;;;;;;;6050381;29;20306;-80
2023/08/08 10:27:08;;;;;;;0.98;0.98;;;;;;;;;;6051373;29;20302;-79
2023/08/08 10:30:14;;;;;;;1.65;1.10;;;;;;;;;;6050151;29;20302;-79
2023/08/08 10:33:19;;;;;;;2.50;1.40;;;;;;;;;;6054658;29;20293;-79
2023/08/08 10:36:23;;;;;;;0.77;0.77;;;;;;;;;;6072328;29;20606;-78
2023/08/08 10:39:30;;;;;;;0.80;0.80;;;;;;;;;;6074235;29;20314;-79
2023/08/08 10:42:42;;;;;;;1.13;1.10;;;;;;;;;;6069722;29;20273;-80
2023/08/08 10:45:46;;;;;;;0.95;0.90;;;;;;;;;;6053256;29;20258;-80
2023/08/08 10:49:06;;;;;;;0.90;0.90;;;;;;;;;;6045268;29;20298;-80
2023/08/08 10:52:15;;;;;;;0.80;0.80;;;;;;;;;;6045987;29;20298;-80
2023/08/08 10:55:25;;;;;;;0.88;0.88;;;;;;;;;;6045825;29;20329;-78
2023/08/08 10:58:39;;;;;;;0.80;0.80;;;;;;;;;;6045724;29;20385;-79
2023/08/08 11:01:44;;;;;;;0.70;0.70;;;;;;;;;;6046146;29;20298;-80
2023/08/08 11:04:49;;;;;;;0.88;0.88;;;;;;;;;;6045165;29;20574;-79
2023/08/08 11:07:53;;;;;;;1.00;1.00;;;;;;;;;;6046108;29;20281;-79
2023/08/08 11:10:58;;;;;;;0.88;0.88;;;;;;;;;;6046686;29;20318;-79
2023/08/08 11:14:10;;;;;;;1.95;1.00;;;;;;;;;;6046310;29;20440;-79
2023/08/08 11:17:15;;;;;;;1.27;0.98;;;;;;;;;;6046079;29;20310;-80
2023/08/08 11:20:19;;;;;;;1.00;1.00;;;;;;;;;;6044548;29;20448;-80
2023/08/08 11:23:23;;;;;;;1.02;1.02;;;;;;;;;;6045218;29;20346;-78
2023/08/08 11:26:31;;;;;;;1.10;1.10;;;;;;;;;;6045619;29;20301;-77
2023/08/08 11:29:35;;;;;;;0.93;0.93;;;;;;;;;;6044757;29;20322;-77
2023/08/08 11:32:39;;;;;;;1.77;1.10;;;;;;;;;;6045135;29;20609;-78
2023/08/08 11:35:48;;;;;;;1.10;1.10;;;;;;;;;;6067583;29;20306;-79
2023/08/08 11:38:52;;;;;;;1.65;0.98;;;;;;;;;;6068162;29;20305;-78
2023/08/08 11:41:57;;;;;;;0.88;0.88;;;;;;;;;;6071978;29;20300;-78
2023/08/08 11:45:04;;;;;;;0.85;0.82;;;;;;;;;;6068457;29;20527;-77
2023/08/08 11:48:10;;;;;;;2.17;1.38;;;;;;;;;;6070488;29;20293;-78
2023/08/08 11:51:15;;;;;;;0.90;0.90;;;;;;;;;;6070226;29;20301;-78
2023/08/08 11:54:20;;;;;;;1.70;0.90;;;;;;;;;;6067739;29;20321;-78
2023/08/08 11:57:25;;;;;;;0.80;0.80;;;;;;;;;;6068651;29;20557;-79
2023/08/08 12:00:30;;;;;;;1.10;1.10;;;;;;;;;;6065446;29;20304;-78
2023/08/08 12:03:38;;;;;;;1.92;0.85;;;;;;;;;;6067073;29;20511;-79
2023/08/08 12:06:43;;;;;;;1.08;1.00;;;;;;;;;;6067996;29;20245;-78
2023/08/08 12:09:48;;;;;;;3.22;1.30;;;;;;;;;;6065327;29;20306;-78
2023/08/08 12:12:57;;;;;;;1.00;1.00;;;;;;;;;;6028892;29;20297;-79
2023/08/08 12:16:01;;;;;;;0.98;0.98;;;;;;;;;;6045475;29;20346;-78
2023/08/08 12:19:08;;;;;;;2.42;1.00;;;;;;;;;;6044828;29;20464;-79
2023/08/08 12:22:12;;;;;;;2.10;1.10;;;;;;;;;;6045178;29;20305;-77
2023/08/08 12:25:16;;;;;;;0.93;0.93;;;;;;;;;;6044549;29;20301;-78
2023/08/08 12:28:21;;;;;;;2.95;1.10;;;;;;;;;;6045027;29;20297;-79
2023/08/08 12:31:25;;;;;;;1.25;1.15;;;;;;;;;;6045215;29;20590;-78
2023/08/08 12:34:30;;;;;;;2.50;1.30;;;;;;;;;;6060249;29;20301;-78
2023/08/08 12:37:33;;;;;;;1.27;1.10;;;;;;;;;;6068371;29;20300;-78
2023/08/08 12:40:37;;;;;;;1.00;1.00;;;;;;;;;;6068677;29;20309;-78
2023/08/08 12:43:43;;;;;;;1.10;1.00;;;;;;;;;;6067354;29;20301;-78
2023/08/08 12:46:46;;;;;;;1.45;1.20;;;;;;;;;;6070270;29;20313;-78
2023/08/08 12:49:50;;;;;;;1.42;1.00;;;;;;;;;;6071586;29;20455;-79
2023/08/08 12:52:54;;;;;;;2.95;1.10;;;;;;;;;;6055107;29;20297;-78
2023/08/08 12:55:58;;;;;;;2.20;1.05;;;;;;;;;;6072023;29;20300;-78
2023/08/08 12:59:03;;;;;;;1.50;1.10;;;;;;;;;;6071244;29;20369;-79
2023/08/08 13:02:08;;;;;;;1.85;1.08;;;;;;;;;;6071702;29;20425;-79
2023/08/08 13:05:12;;;;;;;2.65;1.02;;;;;;;;;;6072413;29;20305;-79
2023/08/08 13:08:16;;;;;;;1.27;1.17;;;;;;;;;;6072457;29;20297;-78
2023/08/08 13:11:19;;;;;;;0.95;0.90;;;;;;;;;;6057055;29;20305;-77
2023/08/08 13:14:25;;;;;;;0.90;0.90;;;;;;;;;;6048231;29;20297;-78
2023/08/08 13:17:29;;;;;;;1.27;1.27;;;;;;;;;;6048329;29;20313;-77
2023/08/08 13:20:33;;;;;;;1.30;1.20;;;;;;;;;;6047554;29;20585;-79
2023/08/08 13:23:36;;;;;;;1.38;1.27;;;;;;;;;;6046988;29;20301;-77
2023/08/08 13:26:40;;;;;;;3.53;1.48;;;;;;;;;;6048160;29;20307;-77
2023/08/08 13:29:45;;;;;;;1.45;1.20;;;;;;;;;;6047996;29;20614;-77
2023/08/08 13:32:49;;;;;;;2.20;1.40;;;;;;;;;;6047557;29;20586;-78
2023/08/08 13:35:53;;;;;;;3.20;1.08;;;;;;;;;;6071118;29;20296;-77
2023/08/08 13:38:57;;;;;;;1.35;1.10;;;;;;;;;;6070355;29;20297;-77
2023/08/08 13:42:01;;;;;;;5.07;1.50;;;;;;;;;;6070799;29;20593;-77
2023/08/08 13:45:08;;;;;;;2.72;1.08;;;;;;;;;;6069223;29;20300;-77
2023/08/08 13:48:12;;;;;;;1.35;1.25;;;;;;;;;;6069975;29;20305;-78
2023/08/08 13:51:17;;;;;;;1.23;1.10;;;;;;;;;;6070695;29;20316;-77
2023/08/08 13:54:21;;;;;;;1.02;1.00;;;;;;;;;;6069861;29;20301;-77
2023/08/08 13:57:24;;;;;;;1.33;1.23;;;;;;;;;;6070446;29;20292;-77
2023/08/08 14:00:30;;;;;;;1.27;1.00;;;;;;;;;;6069451;29;20300;-77
2023/08/08 14:03:34;;;;;;;4.50;1.42;;;;;;;;;;6069826;29;20321;-78
2023/08/08 14:06:38;;;;;;;3.80;1.10;;;;;;;;;;6070631;29;20246;-77
2023/08/08 14:09:42;;;;;;;4.03;1.20;;;;;;;;;;6069780;29;20338;-77
2023/08/08 14:12:45;;;;;;;3.70;1.17;;;;;;;;;;6069712;29;20293;-77
2023/08/08 14:15:51;;;;;;;0.80;0.80;;;;;;;;;;6071425;29;20289;-78
2023/08/08 14:18:55;;;;;;;1.73;1.00;;;;;;;;;;6070968;29;20302;-78
2023/08/08 14:21:59;;;;;;;1.77;1.00;;;;;;;;;;6070302;29;20297;-78
2023/08/08 14:25:05;;;;;;;4.32;1.38;;;;;;;;;;6070704;29;20301;-78
2023/08/08 14:28:10;;;;;;;1.33;0.98;;;;;;;;;;6070442;29;20290;-77
2023/08/08 14:31:15;;;;;;;2.20;1.48;;;;;;;;;;6071035;29;20305;-77
2023/08/08 14:34:30;;;;;;;3.00;1.20;;;;;;;;;;6058153;29;20322;-78
2023/08/08 14:37:34;;;;;;;3.40;1.30;;;;;;;;;;6046831;29;20294;-78
2023/08/08 14:40:38;;;;;;;2.28;1.20;;;;;;;;;;6046522;29;20301;-77
2023/08/08 14:43:41;;;;;;;1.13;0.98;;;;;;;;;;6046981;29;20310;-77
2023/08/08 14:46:47;;;;;;;1.40;1.30;;;;;;;;;;6046700;29;20460;-77
2023/08/08 14:49:51;;;;;;;2.67;1.45;;;;;;;;;;6046871;29;20305;-77
2023/08/08 14:52:54;;;;;;;2.47;1.40;;;;;;;;;;6047052;29;20305;-77
2023/08/08 14:55:58;;;;;;;7.88;1.80;;;;;;;;;;6049790;29;20309;-77
2023/08/08 14:59:03;;;;;;;1.30;1.20;;;;;;;;;;6046908;29;20321;-79
2023/08/08 15:02:08;;;;;;;2.42;1.13;;;;;;;;;;6047413;29;20309;-79
2023/08/08 15:05:12;;;;;;;5.45;1.27;;;;;;;;;;6046775;29;20302;-78
2023/08/08 15:08:18;;;;;;;5.43;1.50;;;;;;;;;;6045120;29;20373;-78
2023/08/08 15:11:22;;;;;;;3.05;1.42;;;;;;;;;;6062401;29;20349;-78
2023/08/08 15:14:26;;;;;;;2.78;1.40;;;;;;;;;;6069963;29;20316;-77
2023/08/08 15:17:32;;;;;;;3.72;1.30;;;;;;;;;;6068883;29;20325;-77
2023/08/08 15:20:37;;;;;;;6.18;1.40;;;;;;;;;;6069660;29;20305;-79
2023/08/08 15:23:43;;;;;;;2.63;1.30;;;;;;;;;;6069618;29;20301;-78
2023/08/08 15:26:47;;;;;;;1.35;1.23;;;;;;;;;;6070575;29;20304;-77
2023/08/08 15:29:51;;;;;;;3.80;1.40;;;;;;;;;;6070773;29;20301;-78
2023/08/08 15:32:56;;;;;;;3.03;1.13;;;;;;;;;;6071816;29;20293;-76
2023/08/08 15:36:00;;;;;;;2.22;1.67;;;;;;;;;;6071169;29;20305;-77
2023/08/08 15:39:04;;;;;;;2.45;1.40;;;;;;;;;;6070087;29;20321;-77
2023/08/08 15:42:08;;;;;;;2.38;1.20;;;;;;;;;;6071593;29;20415;-78
2023/08/08 15:45:12;;;;;;;6.15;2.80;;;;;;;;;;6069796;29;20569;-79
2023/08/08 15:48:18;;;;;;;1.95;1.58;;;;;;;;;;6068294;29;20312;-79
2023/08/08 15:51:22;;;;;;;1.60;1.20;;;;;;;;;;6070204;29;20589;-78
2023/08/08 15:54:25;;;;;;;1.13;1.13;;;;;;;;;;6068497;29;20300;-77
2023/08/08 15:57:29;;;;;;;1.38;0.82;;;;;;;;;;6067456;29;20277;-78
2023/08/08 16:00:33;;;;;;;1.00;1.00;;;;;;;;;;6067248;29;20272;-77
2023/08/08 16:03:38;;;;;;;1.33;1.00;;;;;;;;;;6067673;29;20305;-78
2023/08/08 16:06:42;;;;;;;2.55;1.00;;;;;;;;;;6068353;29;20246;-78
2023/08/08 16:09:46;;;;;;;1.55;1.20;;;;;;;;;;6067502;29;20305;-78
2023/08/08 16:12:50;;;;;;;3.58;1.10;;;;;;;;;;6068004;29;20628;-79
2023/08/08 16:15:54;;;;;;;2.90;1.20;;;;;;;;;;6068174;29;20306;-78
2023/08/08 16:18:59;;;;;;;1.30;1.20;;;;;;;;;;6067556;29;20301;-79
2023/08/08 16:22:04;;;;;;;2.58;1.10;;;;;;;;;;6070582;29;20288;-78
2023/08/08 16:25:08;;;;;;;5.65;1.60;;;;;;;;;;6070438;29;20297;-78
2023/08/08 16:28:12;;;;;;;2.05;1.20;;;;;;;;;;6072275;29;20297;-77
2023/08/08 16:31:16;;;;;;;10.55;1.50;;;;;;;;;;6072563;29;20301;-77
2023/08/08 16:34:22;;;;;;;2.25;1.50;;;;;;;;;;6060391;29;20337;-78
2023/08/08 16:37:26;;;;;;;2.60;1.63;;;;;;;;;;6049310;29;20570;-79
2023/08/08 16:40:29;;;;;;;3.08;2.13;;;;;;;;;;6048765;29;20302;-81
2023/08/08 16:43:36;;;;;;;1.77;1.58;;;;;;;;;;6048622;29;20309;-78
2023/08/08 16:46:40;;;;;;;1.35;1.23;;;;;;;;;;6031938;29;20471;-79
2023/08/08 16:49:46;;;;;;;2.83;2.10;;;;;;;;;;6048793;29;20297;-77
2023/08/08 16:52:50;;;;;;;2.22;1.35;;;;;;;;;;6048625;29;20562;-78
2023/08/08 16:55:54;;;;;;;5.60;3.70;;;;;;;;;;6049914;29;20571;-77
2023/08/08 16:58:58;;;;;;;10.55;7.00;;;;;;;;;;6048925;29;20582;-78
2023/08/08 17:02:03;;;;;;;3.47;2.55;;;;;;;;;;6049228;29;20310;-80
2023/08/08 17:05:09;;;;;;;2.42;2.15;;;;;;;;;;6048467;29;20313;-79
2023/08/08 17:08:12;;;;;;;2.00;1.40;;;;;;;;;;6048434;29;20289;-77
2023/08/08 17:11:17;;;;;;;1.40;1.27;;;;;;;;;;6047166;29;20297;-77
2023/08/08 17:14:20;;;;;;;1.95;1.30;;;;;;;;;;6048111;29;20310;-78
2023/08/08 17:17:25;;;;;;;1.50;1.40;;;;;;;;;;6049351;29;20309;-78
2023/08/08 17:20:31;;;;;;;2.50;1.00;;;;;;;;;;6049024;29;20309;-78
2023/08/08 17:23:35;;;;;;;5.90;2.03;;;;;;;;;;6048024;29;20309;-78
2023/08/08 17:26:39;;;;;;;4.15;1.17;;;;;;;;;;6048575;29;20302;-78
2023/08/08 17:29:43;;;;;;;5.55;1.45;;;;;;;;;;6047885;29;20293;-80
2023/08/08 17:32:46;;;;;;;4.28;1.30;;;;;;;;;;6047571;29;20293;-79
2023/08/08 17:35:52;;;;;;;1.63;1.27;;;;;;;;;;6048516;29;20574;-80
2023/08/08 17:38:55;;;;;;;3.22;1.40;;;;;;;;;;6048063;29;20305;-79
2023/08/08 17:41:59;;;;;;;5.13;1.42;;;;;;;;;;6048028;29;20305;-77
2023/08/08 17:45:04;;;;;;;5.97;1.60;;;;;;;;;;6047639;29;20455;-75
2023/08/08 17:48:08;;;;;;;2.70;1.20;;;;;;;;;;6047250;29;20306;-79
2023/08/08 17:51:13;;;;;;;2.58;1.35;;;;;;;;;;6047833;29;20317;-79
2023/08/08 17:54:17;;;;;;;1.23;1.15;;;;;;;;;;6047454;29;20458;-76
2023/08/08 17:57:21;;;;;;;1.88;1.33;;;;;;;;;;6046949;29;20356;-76
2023/08/08 18:00:25;;;;;;;3.75;1.80;;;;;;;;;;6047190;29;20314;-75
2023/08/08 18:03:28;;;;;;;2.40;1.52;;;;;;;;;;6048422;29;20297;-77
2023/08/08 18:06:34;;;;;;;5.00;1.80;;;;;;;;;;6047380;29;20242;-76
2023/08/08 18:09:37;;;;;;;7.85;1.90;;;;;;;;;;6048703;29;20310;-77
2023/08/08 18:12:43;;;;;;;6.07;1.75;;;;;;;;;;6070254;29;20395;-76
2023/08/08 18:15:48;;;;;;;2.35;1.67;;;;;;;;;;6070324;29;20249;-76
2023/08/08 18:18:53;;;;;;;2.40;1.50;;;;;;;;;;6070080;29;20321;-76
2023/08/08 18:21:58;;;;;;;4.68;1.80;;;;;;;;;;6071765;29;20469;-75
2023/08/08 18:25:02;;;;;;;3.63;1.67;;;;;;;;;;6070757;29;20305;-75
2023/08/08 18:28:06;;;;;;;2.22;1.70;;;;;;;;;;6070556;29;20304;-76